Time;durP1;ratioP1;P1;durP2;ratioP2;P2;SDS_P1;SDS_P2;PMS_P1;PMS_P2;Temp;Humidity;BMP_temperature;BMP_pressure;BME280_temperature;BME280_humidity;BME280_pressure;Samples;Min_cycle;Max_cycle;Signal;HPM_P1;HPM_P2
2023/05/21 00:04:06;;;;;;;;;;;;;;;14.45;55.08398;102124.7;;;;-69
2023/05/21 00:04:19;;;;;;;0.2;0.1;;;;;;;;;;;;;-68
2023/05/21 00:09:05;;;;;;;;;;;;;;;14.45;54.98242;102116.8;;;;-69
2023/05/21 00:14:05;;;;;;;;;;;;;;;14.49;55.22363;102118.1;;;;-69
2023/05/21 00:19:06;;;;;;;;;;;;;;;14.46;55.33203;102112;;;;-69
2023/05/21 00:24:06;;;;;;;;;;;;;;;14.48;55.21191;102107.2;;;;-69
2023/05/21 00:29:05;;;;;;;;;;;;;;;14.53;55.27246;102109.8;;;;-69
2023/05/21 00:34:06;;;;;;;;;;;;;;;14.51;55.47461;102107.2;;;;-68
2023/05/21 00:34:21;;;;;;;0.2;0.1;;;;;;;;;;;;;-69
2023/05/21 00:39:06;;;;;;;;;;;;;;;14.53;55.99316;102104.2;;;;-67
2023/05/21 00:44:05;;;;;;;;;;;;;;;14.54;55.85938;102100.9;;;;-68
2023/05/21 00:49:06;;;;;;;;;;;;;;;14.55;56.1416;102093;;;;-69
2023/05/21 00:54:07;;;;;;;;;;;;;;;14.57;55.69434;102092.4;;;;-68
2023/05/21 00:59:06;;;;;;;;;;;;;;;14.58;55.98828;102086.6;;;;-67
2023/05/21 01:04:06;;;;;;;;;;;;;;;14.6;56.15918;102085;;;;-69
2023/05/21 01:04:23;;;;;;;0.2;0;;;;;;;;;;;;;-71
2023/05/21 01:09:08;;;;;;;;;;;;;;;14.62;56.16211;102079.8;;;;-69
2023/05/21 01:14:08;;;;;;;;;;;;;;;14.61;55.8916;102076.3;;;;-69
2023/05/21 01:19:08;;;;;;;;;;;;;;;14.62;56.18457;102069.4;;;;-69
2023/05/21 01:24:06;;;;;;;;;;;;;;;14.62;55.91504;102073;;;;-68
2023/05/21 01:29:06;;;;;;;;;;;;;;;14.64;56.16504;102069.5;;;;-68
2023/05/21 01:34:08;;;;;;;;;;;;;;;14.64;55.92871;102071.7;;;;-68
2023/05/21 01:34:29;;;;;;;0.2;0.1;;;;;;;;;;;;;-69
2023/05/21 01:39:10;;;;;;;;;;;;;;;14.61;56.01465;102072.8;;;;-68
2023/05/21 01:44:06;;;;;;;;;;;;;;;14.62;56.15137;102069.3;;;;-67
2023/05/21 01:49:05;;;;;;;;;;;;;;;14.62;55.98242;102068;;;;-68
2023/05/21 01:54:05;;;;;;;;;;;;;;;14.63;55.96094;102067.4;;;;-68
2023/05/21 01:59:06;;;;;;;;;;;;;;;14.62;55.9375;102066.5;;;;-69
2023/05/21 02:04:06;;;;;;;;;;;;;;;14.62;56.23047;102061.6;;;;-70
2023/05/21 02:04:28;;;;;;;0.2;0.1;;;;;;;;;;;;;-69
2023/05/21 02:09:05;;;;;;;;;;;;;;;14.61;56.44336;102063.4;;;;-70
2023/05/21 02:14:06;;;;;;;;;;;;;;;14.62;56.15137;102059.7;;;;-68
2023/05/21 02:19:06;;;;;;;;;;;;;;;14.61;55.80273;102060.1;;;;-69
2023/05/21 02:24:05;;;;;;;;;;;;;;;14.62;55.9375;102064.8;;;;-68
2023/05/21 02:29:06;;;;;;;;;;;;;;;14.62;55.88086;102068.7;;;;-69
2023/05/21 02:34:06;;;;;;;;;;;;;;;14.61;56.00293;102069.2;;;;-69
2023/05/21 02:34:31;;;;;;;0.2;0.1;;;;;;;;;;;;;-69
2023/05/21 02:39:05;;;;;;;;;;;;;;;14.59;55.95703;102070.3;;;;-68
2023/05/21 02:44:05;;;;;;;;;;;;;;;14.58;55.67383;102070;;;;-68
2023/05/21 02:49:05;;;;;;;;;;;;;;;14.57;55.93066;102064.7;;;;-69
2023/05/21 02:54:05;;;;;;;;;;;;;;;14.55;55.74805;102068.2;;;;-69
2023/05/21 02:59:05;;;;;;;;;;;;;;;14.58;56.68555;102065.4;;;;-70
2023/05/21 03:04:05;;;;;;;;;;;;;;;14.53;55.87988;102061.3;;;;-68
2023/05/21 03:04:32;;;;;;;0.3;0.2;;;;;;;;;;;;;-69
2023/05/21 03:09:05;;;;;;;;;;;;;;;14.53;56.0498;102060.3;;;;-70
2023/05/21 03:14:08;;;;;;;;;;;;;;;14.53;56.56738;102061.3;;;;-69
2023/05/21 03:19:05;;;;;;;;;;;;;;;14.52;56.36328;102057;;;;-69
2023/05/21 03:24:05;;;;;;;;;;;;;;;14.49;57.00098;102054.2;;;;-67
2023/05/21 03:29:05;;;;;;;;;;;;;;;14.53;57.56641;102054.6;;;;-69
2023/05/21 03:34:07;;;;;;;;;;;;;;;14.5;57.59668;102052;;;;-69
2023/05/21 03:34:34;;;;;;;0.2;0.1;;;;;;;;;;;;;-68
2023/05/21 03:39:06;;;;;;;;;;;;;;;14.49;57.75293;102046.1;;;;-70
2023/05/21 03:44:05;;;;;;;;;;;;;;;14.47;57.69434;102039.3;;;;-68
2023/05/21 03:49:05;;;;;;;;;;;;;;;14.48;57.52637;102038.3;;;;-68
2023/05/21 03:54:07;;;;;;;;;;;;;;;14.51;57.94629;102035.5;;;;-68
2023/05/21 03:59:05;;;;;;;;;;;;;;;14.49;58.12402;102034.8;;;;-67
2023/05/21 04:04:05;;;;;;;;;;;;;;;14.47;57.72754;102032.6;;;;-69
2023/05/21 04:04:36;;;;;;;0.2;0.1;;;;;;;;;;;;;-68
2023/05/21 04:09:06;;;;;;;;;;;;;;;14.48;58.44922;102033.1;;;;-70
2023/05/21 04:14:05;;;;;;;;;;;;;;;14.48;58.44922;102049.5;;;;-69
2023/05/21 04:19:05;;;;;;;;;;;;;;;14.5;58.23828;102052.8;;;;-68
2023/05/21 04:24:05;;;;;;;;;;;;;;;14.51;58.3623;102047.3;;;;-69
2023/05/21 04:29:06;;;;;;;;;;;;;;;14.52;58.4541;102046.7;;;;-69
2023/05/21 04:34:06;;;;;;;;;;;;;;;14.55;58.36816;102058.8;;;;-71
2023/05/21 04:34:38;;;;;;;0.2;0.1;;;;;;;;;;;;;-68
2023/05/21 04:39:06;;;;;;;;;;;;;;;14.56;58.15625;102054.1;;;;-68
2023/05/21 04:44:05;;;;;;;;;;;;;;;14.61;58.9375;102053;;;;-72
2023/05/21 04:49:05;;;;;;;;;;;;;;;14.63;59.14355;102056.8;;;;-70
2023/05/21 04:54:05;;;;;;;;;;;;;;;14.65;59.38184;102057.4;;;;-68
2023/05/21 04:59:06;;;;;;;;;;;;;;;14.67;59.41797;102059.9;;;;-68
2023/05/21 05:04:05;;;;;;;;;;;;;;;14.71;58.99609;102058.1;;;;-71
2023/05/21 05:04:40;;;;;;;0.2;0.1;;;;;;;;;;;;;-68
2023/05/21 05:09:05;;;;;;;;;;;;;;;14.75;59.48535;102053.3;;;;-69
2023/05/21 05:14:05;;;;;;;;;;;;;;;14.78;59.74707;102053.4;;;;-70
2023/05/21 05:19:05;;;;;;;;;;;;;;;14.84;60.35156;102048.6;;;;-68
2023/05/21 05:24:05;;;;;;;;;;;;;;;14.89;60.04492;102045.6;;;;-68
2023/05/21 05:29:05;;;;;;;;;;;;;;;14.96;59.62695;102032.8;;;;-69
2023/05/21 05:34:05;;;;;;;;;;;;;;;15;60.22852;102023.2;;;;-70
2023/05/21 05:34:42;;;;;;;0.4;0.3;;;;;;;;;;;;;-69
2023/05/21 05:39:06;;;;;;;;;;;;;;;15.07;60.13672;102019.7;;;;-68
2023/05/21 05:44:05;;;;;;;;;;;;;;;15.14;60.64063;102023.5;;;;-69
2023/05/21 05:49:05;;;;;;;;;;;;;;;15.18;61.00586;102020.6;;;;-70
2023/05/21 05:54:05;;;;;;;;;;;;;;;15.24;60.87891;102016.4;;;;-68
2023/05/21 05:59:05;;;;;;;;;;;;;;;15.34;61.07324;102017.1;;;;-72
2023/05/21 06:04:05;;;;;;;;;;;;;;;15.47;60.98926;102020.5;;;;-69
2023/05/21 06:04:44;;;;;;;0.2;0.1;;;;;;;;;;;;;-69
2023/05/21 06:09:05;;;;;;;;;;;;;;;15.68;61.06445;102015.2;;;;-69
2023/05/21 06:14:05;;;;;;;;;;;;;;;16.03;60.93262;102013.3;;;;-69
2023/05/21 06:19:05;;;;;;;;;;;;;;;16.17;61.00879;102019.3;;;;-70
2023/05/21 06:24:06;;;;;;;;;;;;;;;16.24;60.99414;102022.1;;;;-70
2023/05/21 06:29:06;;;;;;;;;;;;;;;16.3;60.81055;102028.1;;;;-70
2023/05/21 06:34:05;;;;;;;;;;;;;;;16.29;61.10254;102028.7;;;;-70
2023/05/21 06:34:46;;;;;;;0.2;0.1;;;;;;;;;;;;;-70
2023/05/21 06:39:06;;;;;;;;;;;;;;;16.34;61.36914;102031.5;;;;-69
2023/05/21 06:44:05;;;;;;;;;;;;;;;16.36;61.6875;102033.5;;;;-70
2023/05/21 06:49:05;;;;;;;;;;;;;;;16.4;61.76074;102033.8;;;;-69
2023/05/21 06:54:06;;;;;;;;;;;;;;;16.44;62.41992;102035.3;;;;-71
2023/05/21 06:59:05;;;;;;;;;;;;;;;16.47;62.22168;102037.8;;;;-69
2023/05/21 07:04:05;;;;;;;;;;;;;;;16.5;62.19141;102041.5;;;;-71
2023/05/21 07:04:48;;;;;;;0.3;0.1;;;;;;;;;;;;;-69
2023/05/21 07:09:05;;;;;;;;;;;;;;;16.56;61.99805;102043.7;;;;-69
2023/05/21 07:14:06;;;;;;;;;;;;;;;16.6;62.08203;102043.4;;;;-68
2023/05/21 07:19:05;;;;;;;;;;;;;;;16.61;62.42285;102041.4;;;;-69
2023/05/21 07:24:05;;;;;;;;;;;;;;;16.66;62.22656;102047;;;;-68
2023/05/21 07:29:05;;;;;;;;;;;;;;;16.76;62.00293;102047.4;;;;-69
2023/05/21 07:34:05;;;;;;;;;;;;;;;16.96;61.625;102048.3;;;;-72
2023/05/21 07:34:50;;;;;;;0.2;0.1;;;;;;;;;;;;;-71
2023/05/21 07:39:05;;;;;;;;;;;;;;;17.26;60.85352;102041.4;;;;-69
2023/05/21 07:44:08;;;;;;;;;;;;;;;17.44;59.75879;102046.7;;;;-68
2023/05/21 07:49:05;;;;;;;;;;;;;;;17.59;59.21387;102045.6;;;;-69
2023/05/21 07:54:06;;;;;;;;;;;;;;;17.75;59.24414;102040.4;;;;-69
2023/05/21 07:59:05;;;;;;;;;;;;;;;17.89;58.77734;102044.2;;;;-69
2023/05/21 08:04:07;;;;;;;;;;;;;;;17.91;58.92676;102041;;;;-69
2023/05/21 08:04:53;;;;;;;0.2;0;;;;;;;;;;;;;-69
2023/05/21 08:09:05;;;;;;;;;;;;;;;17.96;58.66113;102040.5;;;;-68
2023/05/21 08:14:05;;;;;;;;;;;;;;;18.07;58.49512;102049;;;;-72
2023/05/21 08:19:05;;;;;;;;;;;;;;;18.14;58.32324;102043.3;;;;-69
2023/05/21 08:24:05;;;;;;;;;;;;;;;18.18;58.41895;102040.9;;;;-70
2023/05/21 08:29:06;;;;;;;;;;;;;;;18.21;58.41211;102048;;;;-69
2023/05/21 08:34:05;;;;;;;;;;;;;;;18.32;58.00781;102041.5;;;;-70
2023/05/21 08:34:56;;;;;;;0.4;0.1;;;;;;;;;;;;;-69
2023/05/21 08:39:05;;;;;;;;;;;;;;;18.51;57.83887;102044.7;;;;-68
2023/05/21 08:44:06;;;;;;;;;;;;;;;18.6;57.77148;102036.1;;;;-68
2023/05/21 08:49:06;;;;;;;;;;;;;;;18.81;57.09375;102032;;;;-70
2023/05/21 08:54:07;;;;;;;;;;;;;;;18.93;56.75781;102032.7;;;;-69
2023/05/21 08:59:05;;;;;;;;;;;;;;;19.04;56.45313;102025.6;;;;-68
2023/05/21 09:04:05;;;;;;;;;;;;;;;19.29;56.08789;102019.4;;;;-70
2023/05/21 09:05:02;;;;;;;0.2;0.1;;;;;;;;;;;;;-73
2023/05/21 09:09:09;;;;;;;;;;;;;;;19.54;56.1543;102019.3;;;;-69
2023/05/21 09:14:06;;;;;;;;;;;;;;;19.8;55.35547;102017.3;;;;-75
2023/05/21 09:19:06;;;;;;;;;;;;;;;20.08;55.10547;102022.1;;;;-75
2023/05/21 09:24:06;;;;;;;;;;;;;;;20.39;54.37988;102019.8;;;;-74
2023/05/21 09:29:08;;;;;;;;;;;;;;;20.64;54.40918;102014.3;;;;-74
2023/05/21 09:34:05;;;;;;;;;;;;;;;20.91;53.58691;102015.5;;;;-73
2023/05/21 09:35:08;;;;;;;0.2;0.1;;;;;;;;;;;;;-73
2023/05/21 09:39:05;;;;;;;;;;;;;;;21.29;53.29004;102016.9;;;;-74
2023/05/21 09:44:06;;;;;;;;;;;;;;;21.81;52.62891;102012.1;;;;-75
2023/05/21 09:49:06;;;;;;;;;;;;;;;22.23;51.82031;102010.6;;;;-73
2023/05/21 09:54:05;;;;;;;;;;;;;;;22.44;50.98438;102010.8;;;;-73
2023/05/21 09:59:06;;;;;;;;;;;;;;;22.44;50.73242;102008;;;;-73
2023/05/21 10:04:07;;;;;;;;;;;;;;;22.43;50.78906;102003;;;;-73
2023/05/21 10:05:05;;;;;;;0.3;0.1;;;;;;;;;;;;;-75
2023/05/21 10:09:09;;;;;;;;;;;;;;;22.47;50.94141;102002.9;;;;-74
2023/05/21 10:14:08;;;;;;;;;;;;;;;22.51;50.58008;101991.8;;;;-74
2023/05/21 10:19:09;;;;;;;;;;;;;;;22.62;50.52246;101989.4;;;;-73
2023/05/21 10:24:06;;;;;;;;;;;;;;;22.75;50.1709;101987.3;;;;-75
2023/05/21 10:29:05;;;;;;;;;;;;;;;22.88;50.20898;101985.3;;;;-74
2023/05/21 10:34:06;;;;;;;;;;;;;;;23.03;49.71973;101985.2;;;;-73
2023/05/21 10:35:08;;;;;;;0.2;0;;;;;;;;;;;;;-74
2023/05/21 10:39:06;;;;;;;;;;;;;;;23.06;49.43555;101974.8;;;;-76
2023/05/21 10:44:13;;;;;;;;;;;;;;;23.08;49.28906;101969.6;;;;-73
2023/05/21 10:49:14;;;;;;;;;;;;;;;23.23;49.15527;101967.1;;;;-74
2023/05/21 10:54:16;;;;;;;;;;;;;;;23.35;48.84668;101964.7;;;;-75
2023/05/21 10:59:11;;;;;;;;;;;;;;;23.58;48.70996;101956.1;;;;-74
2023/05/21 11:04:06;;;;;;;;;;;;;;;23.86;48.26953;101954.9;;;;-74
2023/05/21 11:05:11;;;;;;;0.2;0;;;;;;;;;;;;;-74
2023/05/21 11:09:14;;;;;;;;;;;;;;;23.93;47.80469;101949.8;;;;-73
2023/05/21 11:14:15;;;;;;;;;;;;;;;24.06;47.85254;101950.1;;;;-75
2023/05/21 11:19:06;;;;;;;;;;;;;;;24.19;47.57813;101948.4;;;;-73
2023/05/21 11:24:11;;;;;;;;;;;;;;;24.31;47.26855;101946.5;;;;-74
2023/05/21 11:29:14;;;;;;;;;;;;;;;24.45;47.12207;101943.3;;;;-73
2023/05/21 11:34:27;;;;;;;;;;;;;;;24.56;46.87988;101936.4;;;;-73
2023/05/21 11:35:16;;;;;;;0.6;0.2;;;;;;;;;;;;;-73
2023/05/21 11:39:20;;;;;;;;;;;;;;;24.64;46.78418;101930.9;;;;-73
2023/05/21 11:44:11;;;;;;;;;;;;;;;25.02;47.95508;101932.2;;;;-73
2023/05/21 11:49:06;;;;;;;;;;;;;;;25.18;47.26758;101930;;;;-75
2023/05/21 11:54:06;;;;;;;;;;;;;;;25.4;46.67871;101928.6;;;;-75
2023/05/21 11:59:05;;;;;;;;;;;;;;;25.7;46.10742;101919.2;;;;-74
2023/05/21 12:04:06;;;;;;;;;;;;;;;26.11;46.69336;101910.8;;;;-72
2023/05/21 12:05:19;;;;;;;0.2;0.1;;;;;;;;;;;;;-74
2023/05/21 12:09:06;;;;;;;;;;;;;;;26.43;46.2168;101906;;;;-73
2023/05/21 12:14:05;;;;;;;;;;;;;;;26.66;46.00879;101901.8;;;;-74
2023/05/21 12:19:05;;;;;;;;;;;;;;;26.83;46.62891;101896.7;;;;-73
2023/05/21 12:24:05;;;;;;;;;;;;;;;27.04;45.87305;101890.9;;;;-74
2023/05/21 12:29:07;;;;;;;;;;;;;;;27.13;44.53711;101889.1;;;;-73
2023/05/21 12:34:07;;;;;;;;;;;;;;;27.19;45.50586;101888.4;;;;-73
2023/05/21 12:35:29;;;;;;;0.2;0;;;;;;;;;;;;;-73
2023/05/21 12:39:05;;;;;;;;;;;;;;;27.35;44.96387;101884.8;;;;-74
2023/05/21 12:44:08;;;;;;;;;;;;;;;27.6;44.26855;101887;;;;-75
2023/05/21 12:49:05;;;;;;;;;;;;;;;27.8;44.66016;101883.6;;;;-74
2023/05/21 12:54:05;;;;;;;;;;;;;;;28.08;44.11719;101882.7;;;;-74
2023/05/21 12:59:05;;;;;;;;;;;;;;;28.19;44.11719;101888.6;;;;-74
2023/05/21 13:04:07;;;;;;;;;;;;;;;28.35;43.35254;101879.3;;;;-74
2023/05/21 13:05:28;;;;;;;0.2;0;;;;;;;;;;;;;-73
2023/05/21 13:09:05;;;;;;;;;;;;;;;28.36;43.3418;101879.4;;;;-74
2023/05/21 13:14:07;;;;;;;;;;;;;;;28.43;43.13867;101879.8;;;;-73
2023/05/21 13:19:05;;;;;;;;;;;;;;;28.49;42.8418;101878;;;;-74
2023/05/21 13:24:06;;;;;;;;;;;;;;;28.43;42.42676;101875.8;;;;-75
2023/05/21 13:29:05;;;;;;;;;;;;;;;28.38;43.98438;101864.9;;;;-74
2023/05/21 13:34:06;;;;;;;;;;;;;;;28.3;44.66211;101871.3;;;;-75
2023/05/21 13:35:33;;;;;;;0.2;0;;;;;;;;;;;;;-74
2023/05/21 13:39:05;;;;;;;;;;;;;;;28.34;43.77051;101865.5;;;;-75
2023/05/21 13:44:05;;;;;;;;;;;;;;;28.38;43.06445;101868.4;;;;-75
2023/05/21 13:49:05;;;;;;;;;;;;;;;28.38;41.72363;101864.4;;;;-74
2023/05/21 13:54:08;;;;;;;;;;;;;;;28.36;42.91016;101862.7;;;;-74
2023/05/21 13:59:06;;;;;;;;;;;;;;;28.48;43.65625;101857.4;;;;-74
2023/05/21 14:04:07;;;;;;;;;;;;;;;28.57;42.39453;101856.2;;;;-74
2023/05/21 14:05:39;;;;;;;0.7;0.1;;;;;;;;;;;;;-73
2023/05/21 14:09:06;;;;;;;;;;;;;;;28.59;42.26758;101865.3;;;;-74
2023/05/21 14:14:09;;;;;;;;;;;;;;;28.64;41.47949;101857.5;;;;-75
2023/05/21 14:19:05;;;;;;;;;;;;;;;28.7;42.33691;101853.3;;;;-74
2023/05/21 14:24:05;;;;;;;;;;;;;;;28.9;40.93164;101843.5;;;;-74
2023/05/21 14:29:08;;;;;;;;;;;;;;;28.7;42.2666;101855.9;;;;-75
2023/05/21 14:34:06;;;;;;;;;;;;;;;28.72;42.36133;101844.6;;;;-74
2023/05/21 14:35:43;;;;;;;0.2;0;;;;;;;;;;;;;-75
2023/05/21 14:39:05;;;;;;;;;;;;;;;28.73;42.8291;101830.8;;;;-75
2023/05/21 14:44:05;;;;;;;;;;;;;;;28.81;42.27734;101828.7;;;;-69
2023/05/21 14:49:05;;;;;;;;;;;;;;;28.88;42.59766;101831.7;;;;-68
2023/05/21 14:54:07;;;;;;;;;;;;;;;28.75;41.39648;101828;;;;-68
2023/05/21 14:59:05;;;;;;;;;;;;;;;28.67;40.96875;101820.6;;;;-66
2023/05/21 15:04:06;;;;;;;;;;;;;;;28.51;42.35254;101824.3;;;;-68
2023/05/21 15:05:48;;;;;;;2.1;0.3;;;;;;;;;;;;;-66
2023/05/21 15:09:05;;;;;;;;;;;;;;;28.45;41.49707;101822;;;;-67
2023/05/21 15:14:05;;;;;;;;;;;;;;;28.39;42.90234;101819.8;;;;-68
2023/05/21 15:19:05;;;;;;;;;;;;;;;28.43;42.66016;101817.7;;;;-68
2023/05/21 15:24:05;;;;;;;;;;;;;;;28.38;41.88672;101818.3;;;;-66
2023/05/21 15:29:05;;;;;;;;;;;;;;;28.3;42.51953;101812.8;;;;-68
2023/05/21 15:34:05;;;;;;;;;;;;;;;28.22;42.73438;101809.6;;;;-68
2023/05/21 15:35:53;;;;;;;0.5;0.3;;;;;;;;;;;;;-66
2023/05/21 15:39:05;;;;;;;;;;;;;;;28.2;41.71875;101803.6;;;;-69
2023/05/21 15:44:05;;;;;;;;;;;;;;;28.08;42.92969;101797.1;;;;-68
2023/05/21 15:49:05;;;;;;;;;;;;;;;27.85;42.43262;101791.9;;;;-68
2023/05/21 15:54:05;;;;;;;;;;;;;;;27.74;42.78125;101789.9;;;;-67
2023/05/21 15:59:05;;;;;;;;;;;;;;;27.63;43.42285;101784.8;;;;-69
2023/05/21 16:04:05;;;;;;;;;;;;;;;27.56;43.83398;101792;;;;-68
2023/05/21 16:05:58;;;;;;;0.4;0.1;;;;;;;;;;;;;-66
2023/05/21 16:09:05;;;;;;;;;;;;;;;27.44;43.45117;101787.8;;;;-67
2023/05/21 16:14:05;;;;;;;;;;;;;;;27.34;43.92969;101788;;;;-66
2023/05/21 16:19:05;;;;;;;;;;;;;;;27.21;44.20605;101789.2;;;;-68
2023/05/21 16:24:05;;;;;;;;;;;;;;;27.17;44.69141;101796.1;;;;-67
2023/05/21 16:29:06;;;;;;;;;;;;;;;27.05;44.62109;101793.5;;;;-71
2023/05/21 16:34:05;;;;;;;;;;;;;;;27.01;44.61719;101792.3;;;;-70
2023/05/21 16:36:04;;;;;;;0.2;0;;;;;;;;;;;;;-71
2023/05/21 16:39:05;;;;;;;;;;;;;;;26.86;44.02246;101786.1;;;;-71
2023/05/21 16:44:05;;;;;;;;;;;;;;;26.64;44.82422;101780.5;;;;-71
2023/05/21 16:49:05;;;;;;;;;;;;;;;26.48;44.70313;101778.8;;;;-73
2023/05/21 16:54:08;;;;;;;;;;;;;;;26.31;45.68262;101771.7;;;;-69
2023/05/21 16:59:05;;;;;;;;;;;;;;;26.18;45.42773;101776.4;;;;-70
2023/05/21 17:04:05;;;;;;;;;;;;;;;26.04;46.1543;101770.6;;;;-71
2023/05/21 17:06:08;;;;;;;0.2;0;;;;;;;;;;;;;-71
2023/05/21 17:09:05;;;;;;;;;;;;;;;25.89;46.13867;101767.9;;;;-72
2023/05/21 17:14:05;;;;;;;;;;;;;;;25.76;46.57617;101767.3;;;;-72
2023/05/21 17:19:05;;;;;;;;;;;;;;;25.59;46.66309;101766.2;;;;-72
2023/05/21 17:24:05;;;;;;;;;;;;;;;25.44;46.91309;101765.7;;;;-67
2023/05/21 17:29:05;;;;;;;;;;;;;;;25.31;47.24609;101769.6;;;;-66
2023/05/21 17:34:05;;;;;;;;;;;;;;;25.14;47.40234;101764.1;;;;-67
2023/05/21 17:36:12;;;;;;;0.3;0.1;;;;;;;;;;;;;-66
2023/05/21 17:39:05;;;;;;;;;;;;;;;24.97;47.64941;101765.8;;;;-66
2023/05/21 17:44:05;;;;;;;;;;;;;;;24.81;47.86328;101766.6;;;;-66
2023/05/21 17:49:07;;;;;;;;;;;;;;;24.63;48.24805;101767.8;;;;-67
2023/05/21 17:54:06;;;;;;;;;;;;;;;24.46;48.35645;101763;;;;-67
2023/05/21 17:59:05;;;;;;;;;;;;;;;24.25;48.64648;101762;;;;-67
2023/05/21 18:04:07;;;;;;;;;;;;;;;24.09;48.81152;101773.6;;;;-68
2023/05/21 18:06:17;;;;;;;0.3;0.2;;;;;;;;;;;;;-71
2023/05/21 18:09:06;;;;;;;;;;;;;;;23.9;48.9873;101768.3;;;;-69
2023/05/21 18:14:06;;;;;;;;;;;;;;;23.77;49.08887;101771.4;;;;-70
2023/05/21 18:19:07;;;;;;;;;;;;;;;23.6;49.40234;101771.4;;;;-70
2023/05/21 18:24:05;;;;;;;;;;;;;;;23.44;49.59277;101769.8;;;;-70
2023/05/21 18:29:05;;;;;;;;;;;;;;;23.3;50.08203;101766.3;;;;-70
2023/05/21 18:34:05;;;;;;;;;;;;;;;23.14;50.15723;101767.7;;;;-69
2023/05/21 18:36:22;;;;;;;0.2;0.1;;;;;;;;;;;;;-70
2023/05/21 18:39:05;;;;;;;;;;;;;;;22.96;50.45898;101768.4;;;;-70
2023/05/21 18:44:05;;;;;;;;;;;;;;;22.77;50.72363;101768.8;;;;-68
2023/05/21 18:49:05;;;;;;;;;;;;;;;22.58;50.96582;101768.4;;;;-70
2023/05/21 18:54:07;;;;;;;;;;;;;;;22.41;51.1416;101775.4;;;;-69
2023/05/21 18:59:06;;;;;;;;;;;;;;;22.22;51.24609;101768.1;;;;-69
2023/05/21 19:04:05;;;;;;;;;;;;;;;22.04;51.05371;101770.8;;;;-68
2023/05/21 19:06:26;;;;;;;0.3;0.1;;;;;;;;;;;;;-68
2023/05/21 19:09:05;;;;;;;;;;;;;;;21.86;51.00977;101775.3;;;;-68
2023/05/21 19:14:05;;;;;;;;;;;;;;;21.65;52.02734;101773.4;;;;-69
2023/05/21 19:19:05;;;;;;;;;;;;;;;21.49;51.47168;101779.3;;;;-70
2023/05/21 19:24:05;;;;;;;;;;;;;;;21.28;51.58496;101780.4;;;;-70
2023/05/21 19:29:05;;;;;;;;;;;;;;;21.1;51.68848;101775.7;;;;-70
2023/05/21 19:34:09;;;;;;;;;;;;;;;20.89;51.35547;101774;;;;-68
2023/05/21 19:36:30;;;;;;;0.3;0.1;;;;;;;;;;;;;-68
2023/05/21 19:39:06;;;;;;;;;;;;;;;20.69;52.2002;101777.2;;;;-69
2023/05/21 19:44:05;;;;;;;;;;;;;;;20.49;51.76758;101775.7;;;;-69
2023/05/21 19:49:05;;;;;;;;;;;;;;;20.3;52.50977;101764.5;;;;-69
2023/05/21 19:54:05;;;;;;;;;;;;;;;20.1;52.00684;101767.2;;;;-70
2023/05/21 19:59:05;;;;;;;;;;;;;;;19.91;52.55469;101769.7;;;;-71
2023/05/21 20:04:05;;;;;;;;;;;;;;;19.73;52.94336;101769.4;;;;-68
2023/05/21 20:06:32;;;;;;;0.4;0.2;;;;;;;;;;;;;-69
2023/05/21 20:09:06;;;;;;;;;;;;;;;19.53;52.88477;101769;;;;-69
2023/05/21 20:14:05;;;;;;;;;;;;;;;19.35;52.6709;101771.8;;;;-70
2023/05/21 20:19:05;;;;;;;;;;;;;;;19.18;53.03711;101771.9;;;;-67
2023/05/21 20:24:06;;;;;;;;;;;;;;;19.02;53.30371;101782.3;;;;-70
2023/05/21 20:29:05;;;;;;;;;;;;;;;18.85;53.29395;101786.5;;;;-70
2023/05/21 20:34:07;;;;;;;;;;;;;;;18.68;53.81836;101782.5;;;;-69
2023/05/21 20:36:36;;;;;;;0.2;0.1;;;;;;;;;;;;;-71
2023/05/21 20:39:05;;;;;;;;;;;;;;;18.54;53.88184;101780.2;;;;-69
2023/05/21 20:44:07;;;;;;;;;;;;;;;18.4;54.03418;101777.9;;;;-71
2023/05/21 20:49:06;;;;;;;;;;;;;;;18.27;54.35938;101768.6;;;;-69
2023/05/21 20:54:05;;;;;;;;;;;;;;;18.1;54.71289;101768.3;;;;-68
2023/05/21 20:59:05;;;;;;;;;;;;;;;17.97;55.05957;101767.6;;;;-70
2023/05/21 21:04:05;;;;;;;;;;;;;;;17.86;54.9668;101767.7;;;;-69
2023/05/21 21:06:39;;;;;;;0.3;0.1;;;;;;;;;;;;;-69
2023/05/21 21:09:05;;;;;;;;;;;;;;;17.75;55.34961;101767.9;;;;-68
2023/05/21 21:14:05;;;;;;;;;;;;;;;17.65;55.50586;101767.5;;;;-70
2023/05/21 21:19:05;;;;;;;;;;;;;;;17.52;55.92188;101772.5;;;;-70
2023/05/21 21:24:05;;;;;;;;;;;;;;;17.42;55.63672;101772.3;;;;-67
2023/05/21 21:29:05;;;;;;;;;;;;;;;17.32;56.03125;101773.6;;;;-69
2023/05/21 21:34:05;;;;;;;;;;;;;;;17.22;55.84863;101769.3;;;;-70
2023/05/21 21:36:41;;;;;;;0.3;0.1;;;;;;;;;;;;;-68
2023/05/21 21:39:05;;;;;;;;;;;;;;;17.11;56.20801;101765.7;;;;-69
2023/05/21 21:44:05;;;;;;;;;;;;;;;16.99;56.55469;101762.5;;;;-69
2023/05/21 21:49:05;;;;;;;;;;;;;;;16.91;56.75879;101767.1;;;;-70
2023/05/21 21:54:05;;;;;;;;;;;;;;;16.81;57.24414;101760.6;;;;-69
2023/05/21 21:59:05;;;;;;;;;;;;;;;16.7;57.54688;101760.8;;;;-68
2023/05/21 22:04:05;;;;;;;;;;;;;;;16.64;57.53906;101758;;;;-69
2023/05/21 22:06:44;;;;;;;0.2;0;;;;;;;;;;;;;-71
2023/05/21 22:09:05;;;;;;;;;;;;;;;16.56;57.57324;101756.1;;;;-70
2023/05/21 22:14:05;;;;;;;;;;;;;;;16.48;57.77832;101754.7;;;;-69
2023/05/21 22:19:08;;;;;;;;;;;;;;;16.4;57.63086;101742.3;;;;-68
2023/05/21 22:24:05;;;;;;;;;;;;;;;16.31;58.07227;101740.2;;;;-69
2023/05/21 22:29:05;;;;;;;;;;;;;;;16.23;58.21875;101734.6;;;;-68
2023/05/21 22:34:05;;;;;;;;;;;;;;;16.15;57.94922;101733.1;;;;-71
2023/05/21 22:36:47;;;;;;;0.4;0.3;;;;;;;;;;;;;-69
2023/05/21 22:39:05;;;;;;;;;;;;;;;16.1;58.49414;101741.6;;;;-70
2023/05/21 22:44:05;;;;;;;;;;;;;;;16.01;58.73047;101728.3;;;;-69
2023/05/21 22:49:05;;;;;;;;;;;;;;;15.92;58.86523;101729.7;;;;-71
2023/05/21 22:54:05;;;;;;;;;;;;;;;15.88;59.20898;101726.4;;;;-69
2023/05/21 22:59:05;;;;;;;;;;;;;;;15.81;59.09961;101728.5;;;;-70
2023/05/21 23:04:05;;;;;;;;;;;;;;;15.71;59.08594;101725.8;;;;-69
2023/05/21 23:06:49;;;;;;;0.2;0;;;;;;;;;;;;;-70
2023/05/21 23:09:05;;;;;;;;;;;;;;;15.65;59.31445;101721.4;;;;-69
2023/05/21 23:14:05;;;;;;;;;;;;;;;15.59;59.2041;101723.6;;;;-69
2023/05/21 23:19:05;;;;;;;;;;;;;;;15.53;59.0293;101720.1;;;;-68
2023/05/21 23:24:05;;;;;;;;;;;;;;;15.49;58.9541;101712.1;;;;-69
2023/05/21 23:29:05;;;;;;;;;;;;;;;15.4;59.12305;101709.5;;;;-68
2023/05/21 23:34:05;;;;;;;;;;;;;;;15.36;59.34277;101712.4;;;;-70
2023/05/21 23:36:51;;;;;;;0.2;0.1;;;;;;;;;;;;;-69
2023/05/21 23:39:05;;;;;;;;;;;;;;;15.3;59.3457;101708.2;;;;-69
2023/05/21 23:44:05;;;;;;;;;;;;;;;15.27;59.21777;101704.6;;;;-70
2023/05/21 23:49:05;;;;;;;;;;;;;;;15.2;59.68164;101704.8;;;;-69
2023/05/21 23:54:08;;;;;;;;;;;;;;;15.17;59.94727;101698;;;;-69
2023/05/21 23:59:05;;;;;;;;;;;;;;;15.09;59.43066;101696.4;;;;-69
